Time;durP1;ratioP1;P1;durP2;ratioP2;P2;SDS_P1;SDS_P2;PMS_P1;PMS_P2;Temp;Humidity;BMP_temperature;BMP_pressure;BME280_temperature;BME280_humidity;BME280_pressure;Samples;Min_cycle;Max_cycle;Signal;HPM_P1;HPM_P2
2023/03/07 00:01:00;;;;;;;;;;;2.00;99.90;;;0.88;100.00;96497.56;4998539;28;1554;-81
2023/03/07 00:03:28;;;;;;;;;;;1.90;99.90;;;0.90;100.00;96498.38;4981735;28;1477;-81
2023/03/07 00:06:09;;;;;;;;;;;1.80;99.90;;;0.76;100.00;96495.28;4980821;28;1848;-81
2023/03/07 00:08:36;;;;;;;;;;;1.80;99.90;;;0.66;100.00;96492.06;4996297;28;1673;-81
2023/03/07 00:11:06;;;;;;;;;;;1.70;99.90;;;0.78;100.00;96491.00;4997485;28;1693;-81
2023/03/07 00:13:35;;;;;;;;;;;1.70;99.90;;;0.61;100.00;96496.44;4997882;28;1792;-81
2023/03/07 00:16:07;;;;;;;;;;;1.60;99.90;;;0.71;100.00;96490.28;4995196;28;1993;-81
2023/03/07 00:18:34;;;;;;;;;;;1.60;99.90;;;0.42;100.00;96485.75;4996269;28;1573;-81
2023/03/07 00:21:06;;;;;;;;;;;1.60;99.90;;;0.46;100.00;96482.28;4998349;28;1610;-81
2023/03/07 00:23:35;;;;;;;;;;;1.60;99.90;;;0.44;100.00;96495.97;4999176;28;1598;-81
2023/03/07 00:26:10;;;;;;;;;;;1.60;99.90;;;0.37;100.00;96502.91;5009442;28;1318;-81
2023/03/07 00:28:37;;;;;;;;;;;1.60;99.90;;;0.48;100.00;96487.34;5015206;28;1292;-81
2023/03/07 00:31:07;;;;;;;;;;;1.50;99.90;;;0.44;100.00;96485.75;4996545;28;1520;-81
2023/03/07 00:33:34;;;;;;;;;;;1.50;99.90;;;0.41;100.00;96505.34;4997083;28;1751;-81
2023/03/07 00:36:08;;;;;;;;;;;1.50;99.90;;;0.55;100.00;96492.31;4995270;28;1966;-81
2023/03/07 00:38:36;;;;;;;;;;;1.40;99.90;;;0.48;100.00;96462.66;4999378;28;1675;-80
2023/03/07 00:41:09;;;;;;;;;;;1.40;99.90;;;0.36;100.00;96468.84;4995765;28;1615;-82
2023/03/07 00:43:37;;;;;;;;;;;1.50;99.90;;;0.36;100.00;96470.56;4996726;28;1594;-80
2023/03/07 00:46:05;;;;;;;;;;;1.50;99.90;;;0.41;100.00;96450.88;4997967;28;1497;-82
2023/03/07 00:48:34;;;;;;;;;;;1.40;99.90;;;0.36;100.00;96468.00;4997874;28;1548;-81
2023/03/07 00:51:01;;;;;;;;;;;1.40;99.90;;;0.32;100.00;96467.25;4998357;28;1517;-80
2023/03/07 00:53:28;;;;;;;;;;;1.40;99.90;;;0.28;100.00;96463.06;5004868;28;1489;-81
2023/03/07 00:56:04;;;;;;;;;;;1.40;99.90;;;0.28;100.00;96450.31;4997580;28;1887;-80
2023/03/07 00:58:34;;;;;;;;;;;1.40;99.90;;;0.35;100.00;96451.03;4992555;28;1524;-80
2023/03/07 01:01:02;;;;;;;;;;;1.30;99.90;;;0.31;100.00;96442.56;4997200;28;1540;-81
2023/03/07 01:03:32;;;;;;;;;;;1.30;99.90;;;0.30;100.00;96446.00;4984388;28;1540;-81
2023/03/07 01:06:09;;;;;;;;;;;1.30;99.90;;;0.02;100.00;96450.81;4984819;28;1557;-81
2023/03/07 01:08:36;;;;;;;;;;;1.30;99.90;;;0.19;100.00;96443.66;4995864;28;1552;-81
2023/03/07 01:11:05;;;;;;;;;;;1.30;99.90;;;0.34;100.00;96411.03;4981219;28;1672;-81
2023/03/07 01:13:33;;;;;;;;;;;1.30;99.90;;;0.83;100.00;96398.03;4996382;28;1491;-81
2023/03/07 01:16:13;;;;;;;;;;;1.30;99.90;;;1.68;100.00;96407.03;4998133;28;1966;-80
2023/03/07 01:18:41;;;;;;;;;;;1.30;99.90;;;0.78;100.00;96404.97;5001517;28;1698;-81
2023/03/07 01:21:18;;;;;;;;;;;1.30;99.90;;;0.80;100.00;96398.13;4992786;28;1603;-81
2023/03/07 01:23:45;;;;;;;;;;;1.30;99.90;;;0.74;100.00;96400.81;5000713;28;1457;-81
2023/03/07 01:26:18;;;;;;;;;;;1.30;99.90;;;0.79;100.00;96398.97;4994144;28;1740;-81
2023/03/07 01:28:50;;;;;;;;;;;1.30;99.90;;;0.65;100.00;96411.22;4991788;28;1547;-81
2023/03/07 01:31:17;;;;;;;;;;;1.40;99.90;;;0.85;100.00;96397.19;5005433;28;1670;-82
2023/03/07 01:33:49;;;;;;;;;;;1.30;99.90;;;0.63;100.00;96421.47;4993431;28;1743;-81
2023/03/07 01:36:19;;;;;;;;;;;1.30;99.90;;;0.75;100.00;96422.06;4991869;28;1883;-81
2023/03/07 01:38:47;;;;;;;;;;;1.30;99.90;;;0.66;100.00;96412.91;4992638;28;1611;-81
2023/03/07 01:41:15;;;;;;;;;;;1.30;99.90;;;0.65;100.00;96418.06;4992115;28;1564;-81
2023/03/07 01:43:42;;;;;;;;;;;1.30;99.90;;;0.69;100.00;96412.84;4991965;28;1701;-81
2023/03/07 01:46:25;;;;;;;;;;;1.20;99.90;;;0.66;100.00;96415.44;4994459;28;1634;-81
2023/03/07 01:49:04;;;;;;;;;;;1.20;99.90;;;0.80;100.00;96410.06;4997306;28;1702;-81
2023/03/07 01:51:41;;;;;;;;;;;1.20;99.90;;;0.71;100.00;96398.34;4994844;28;1619;-81
2023/03/07 01:54:10;;;;;;;;;;;1.20;99.90;;;0.70;100.00;96396.63;4996267;28;1418;-80
2023/03/07 01:56:38;;;;;;;;;;;1.20;99.90;;;0.83;100.00;96387.00;4996111;28;1982;-82
2023/03/07 01:59:06;;;;;;;;;;;1.20;99.90;;;0.73;100.00;96385.50;4994172;28;1619;-81
2023/03/07 02:01:33;;;;;;;;;;;1.20;99.90;;;0.79;100.00;96375.16;4980348;28;1602;-80
2023/03/07 02:04:07;;;;;;;;;;;1.20;99.90;;;0.75;100.00;96379.53;4990305;28;1581;-81
2023/03/07 02:06:36;;;;;;;;;;;1.20;99.90;;;0.67;100.00;96375.47;4994268;28;1544;-81
2023/03/07 02:09:07;;;;;;;;;;;1.20;99.90;;;0.73;100.00;96370.19;4999757;28;1546;-81
2023/03/07 02:11:34;;;;;;;;;;;1.20;99.90;;;0.70;100.00;96362.59;4987718;28;1571;-80
2023/03/07 02:14:01;;;;;;;;;;;1.30;99.90;;;0.73;100.00;96353.16;4996710;28;1762;-81
2023/03/07 02:16:28;;;;;;;;;;;1.20;99.90;;;0.76;100.00;96358.19;5000304;28;1969;-81
2023/03/07 02:18:55;;;;;;;;;;;1.20;99.90;;;0.75;100.00;96353.13;4994264;28;1568;-80
2023/03/07 02:21:28;;;;;;;;;;;1.30;99.90;;;0.76;100.00;96345.44;4980965;28;1597;-80
2023/03/07 02:24:07;;;;;;;;;;;1.20;99.90;;;0.69;100.00;96341.34;4994099;28;1587;-80
2023/03/07 02:26:42;;;;;;;;;;;1.30;99.90;;;0.70;100.00;96332.78;4977907;28;1693;-80
2023/03/07 02:29:09;;;;;;;;;;;1.30;99.90;;;0.83;100.00;96341.00;4992204;28;1594;-81
2023/03/07 02:31:37;;;;;;;;;;;1.30;99.90;;;0.74;100.00;96313.97;4992920;28;1572;-80
2023/03/07 02:34:22;;;;;;;;;;;1.30;99.90;;;0.79;100.00;96318.97;4992446;28;1268;-80
2023/03/07 02:36:54;;;;;;;;;;;1.40;99.90;;;0.81;100.00;96314.66;4999955;28;1960;-81
2023/03/07 02:39:22;;;;;;;;;;;1.30;99.90;;;0.87;100.00;96309.41;4994097;28;1477;-81
2023/03/07 02:41:52;;;;;;;;;;;1.30;99.90;;;0.81;100.00;96304.44;4982345;28;1643;-81
2023/03/07 02:44:19;;;;;;;;;;;1.40;99.90;;;0.78;100.00;96314.75;5008169;28;1860;-81
2023/03/07 02:46:46;;;;;;;;;;;1.30;99.90;;;0.72;100.00;96302.13;4991431;28;1503;-81
2023/03/07 02:49:16;;;;;;;;;;;1.40;99.90;;;0.68;100.00;96314.09;4996884;28;1556;-81
2023/03/07 02:51:44;;;;;;;;;;;1.40;99.90;;;0.75;100.00;96309.69;4993990;28;1586;-81
2023/03/07 02:54:12;;;;;;;;;;;1.30;99.90;;;0.67;100.00;96302.22;4998362;28;1433;-81
2023/03/07 02:56:39;;;;;;;;;;;1.40;99.90;;;0.63;100.00;96300.63;4994522;28;1970;-81
2023/03/07 02:59:06;;;;;;;;;;;1.40;99.90;;;0.69;100.00;96286.88;5008653;28;1501;-80
2023/03/07 03:01:33;;;;;;;;;;;1.40;99.90;;;0.83;100.00;96290.75;4993000;28;1539;-81
2023/03/07 03:04:03;;;;;;;;;;;1.40;99.90;;;0.66;100.00;96295.44;4982207;28;1516;-82
2023/03/07 03:06:32;;;;;;;;;;;1.40;99.90;;;0.65;100.00;96298.03;4995554;28;1904;-81
2023/03/07 03:08:59;;;;;;;;;;;1.40;99.90;;;0.73;100.00;96291.88;4999362;28;1443;-80
2023/03/07 03:11:26;;;;;;;;;;;1.40;99.90;;;0.72;100.00;96285.06;4994899;28;1723;-80
2023/03/07 03:13:53;;;;;;;;;;;1.30;99.90;;;0.70;100.00;96286.00;5005169;28;1504;-81
2023/03/07 03:16:20;;;;;;;;;;;1.30;99.90;;;0.70;100.00;96284.28;4984196;28;1919;-81
2023/03/07 03:18:47;;;;;;;;;;;1.30;99.90;;;0.62;100.00;96294.69;4999377;28;1552;-81
2023/03/07 03:21:15;;;;;;;;;;;1.30;99.90;;;0.70;100.00;96288.53;5013523;28;1592;-81
2023/03/07 03:23:42;;;;;;;;;;;1.40;99.90;;;0.71;100.00;96274.88;4987104;28;2292;-81
2023/03/07 03:26:10;;;;;;;;;;;1.40;99.90;;;0.78;100.00;96284.94;4998470;28;1527;-81
2023/03/07 03:28:39;;;;;;;;;;;1.40;99.90;;;0.78;100.00;96273.88;4985202;28;1511;-81
2023/03/07 03:31:09;;;;;;;;;;;1.40;99.90;;;0.97;100.00;96272.53;4997186;28;1614;-81
2023/03/07 03:33:36;;;;;;;;;;;1.40;99.90;;;0.82;100.00;96283.97;5003021;28;1632;-81
2023/03/07 03:36:08;;;;;;;;;;;1.50;99.90;;;0.89;100.00;96271.91;5006896;28;1915;-81
2023/03/07 03:38:35;;;;;;;;;;;1.50;99.90;;;1.00;100.00;96269.03;5010117;28;1464;-81
2023/03/07 03:41:06;;;;;;;;;;;1.50;99.90;;;0.99;100.00;96268.22;4988572;28;1600;-81
2023/03/07 03:43:34;;;;;;;;;;;1.50;99.90;;;0.87;100.00;96271.09;4999860;28;1625;-80
2023/03/07 03:46:02;;;;;;;;;;;1.50;99.90;;;1.00;100.00;96271.59;4982110;28;1508;-81
2023/03/07 03:48:29;;;;;;;;;;;1.60;99.90;;;1.00;100.00;96263.94;5007725;28;1664;-81
2023/03/07 03:51:01;;;;;;;;;;;1.50;99.90;;;0.94;100.00;96262.41;4990941;28;1706;-81
2023/03/07 03:53:30;;;;;;;;;;;1.50;99.90;;;0.90;100.00;96268.44;4996813;28;1696;-81
2023/03/07 03:56:01;;;;;;;;;;;1.60;99.90;;;0.93;100.00;96272.63;4994300;28;1902;-81
2023/03/07 03:58:29;;;;;;;;;;;1.50;99.90;;;1.00;100.00;96261.38;5010810;28;1677;-81
2023/03/07 04:00:56;;;;;;;;;;;1.60;99.90;;;0.97;100.00;96256.38;4994572;28;1579;-81
2023/03/07 04:03:23;;;;;;;;;;;1.60;99.90;;;0.97;100.00;96252.09;4982871;28;1547;-81
2023/03/07 04:05:50;;;;;;;;;;;1.60;99.90;;;0.92;100.00;96259.03;4984196;28;1906;-82
2023/03/07 04:08:17;;;;;;;;;;;1.70;99.90;;;1.02;100.00;96263.00;4981279;28;1604;-81
2023/03/07 04:10:44;;;;;;;;;;;1.70;99.90;;;0.99;100.00;96249.50;4998830;28;1512;-81
2023/03/07 04:13:11;;;;;;;;;;;1.70;99.90;;;1.09;100.00;96257.75;4999355;28;1585;-80
2023/03/07 04:15:38;;;;;;;;;;;1.70;99.90;;;0.92;100.00;96258.22;4994497;28;1568;-79
2023/03/07 04:18:05;;;;;;;;;;;1.70;99.90;;;0.97;100.00;96264.03;4997167;28;2101;-79
2023/03/07 04:20:32;;;;;;;;;;;1.70;99.90;;;1.07;100.00;96247.56;4997639;28;1503;-80
2023/03/07 04:22:59;;;;;;;;;;;1.70;99.90;;;1.04;100.00;96250.22;4995786;28;1718;-81
2023/03/07 04:25:26;;;;;;;;;;;1.70;99.90;;;1.08;100.00;96245.88;4987880;28;1676;-79
2023/03/07 04:27:53;;;;;;;;;;;1.60;99.90;;;1.15;100.00;96253.31;5007834;28;1633;-81
2023/03/07 04:30:20;;;;;;;;;;;1.60;99.90;;;1.12;100.00;96229.56;4994009;28;1837;-79
2023/03/07 04:32:48;;;;;;;;;;;1.70;99.90;;;1.03;100.00;96238.31;4994424;28;1362;-80
2023/03/07 04:35:14;;;;;;;;;;;1.60;99.90;;;1.10;100.00;96236.44;4997264;28;1681;-79
2023/03/07 04:37:42;;;;;;;;;;;1.70;99.90;;;1.03;100.00;96244.28;4995134;28;1898;-79
2023/03/07 04:40:10;;;;;;;;;;;1.60;99.90;;;1.06;100.00;96233.13;4981377;28;1667;-78
2023/03/07 04:42:37;;;;;;;;;;;1.60;99.90;;;1.10;100.00;96234.72;4984886;28;1762;-80
2023/03/07 04:45:06;;;;;;;;;;;1.60;99.90;;;1.11;100.00;96225.34;4994007;28;1580;-80
2023/03/07 04:47:32;;;;;;;;;;;1.60;99.90;;;1.09;100.00;96229.66;5008524;28;1549;-82
2023/03/07 04:50:00;;;;;;;;;;;1.70;99.90;;;1.08;100.00;96230.53;4997047;28;1771;-79
2023/03/07 04:52:27;;;;;;;;;;;1.60;99.90;;;0.92;100.00;96225.81;4996583;28;1553;-81
2023/03/07 04:54:54;;;;;;;;;;;1.70;99.90;;;0.96;100.00;96237.66;4997643;28;1540;-81
2023/03/07 04:57:21;;;;;;;;;;;1.70;99.90;;;1.04;100.00;96237.44;4983820;28;1918;-81
2023/03/07 04:59:48;;;;;;;;;;;1.70;99.90;;;0.99;100.00;96239.28;4993890;28;1446;-81
2023/03/07 05:02:15;;;;;;;;;;;1.70;99.90;;;1.03;100.00;96223.81;4997133;28;1708;-81
2023/03/07 05:04:42;;;;;;;;;;;1.70;99.90;;;0.97;100.00;96220.59;4979274;28;1528;-80
2023/03/07 05:07:11;;;;;;;;;;;1.70;99.90;;;1.00;100.00;96223.91;4996334;28;1651;-81
2023/03/07 05:09:40;;;;;;;;;;;1.70;99.90;;;1.00;100.00;96218.81;4999943;28;1562;-81
2023/03/07 05:12:07;;;;;;;;;;;1.70;99.90;;;0.92;100.00;96220.72;4994746;28;1627;-81
2023/03/07 05:14:34;;;;;;;;;;;1.80;99.90;;;1.07;100.00;96214.34;4994806;28;1747;-81
2023/03/07 05:17:02;;;;;;;;;;;1.80;99.90;;;1.02;100.00;96206.81;5008369;28;1976;-81
2023/03/07 05:19:30;;;;;;;;;;;1.80;99.90;;;0.88;100.00;96225.94;4999873;28;1565;-81
2023/03/07 05:21:57;;;;;;;;;;;1.70;99.90;;;0.94;100.00;96203.63;4992569;28;1527;-81
2023/03/07 05:24:27;;;;;;;;;;;1.80;99.90;;;1.01;100.00;96206.88;4995420;28;1490;-81
2023/03/07 05:26:56;;;;;;;;;;;1.70;99.90;;;0.90;100.00;96207.13;4996706;28;1651;-81
2023/03/07 05:29:23;;;;;;;;;;;1.70;99.90;;;0.97;100.00;96192.50;4978944;28;1661;-81
2023/03/07 05:31:50;;;;;;;;;;;1.70;99.90;;;0.92;100.00;96191.78;4997265;28;1558;-80
2023/03/07 05:34:17;;;;;;;;;;;1.70;99.90;;;0.86;100.00;96197.88;5001541;28;1645;-80
2023/03/07 05:36:44;;;;;;;;;;;1.70;99.90;;;0.86;100.00;96194.50;4995294;28;1875;-81
2023/03/07 05:39:11;;;;;;;;;;;1.70;99.90;;;0.84;100.00;96191.97;4996162;28;1540;-81
2023/03/07 05:41:38;;;;;;;;;;;1.80;99.90;;;1.01;100.00;96188.97;5010557;28;2050;-80
2023/03/07 05:44:06;;;;;;;;;;;1.70;99.90;;;0.98;100.00;96182.25;4997895;28;1504;-81
2023/03/07 05:46:33;;;;;;;;;;;1.70;99.90;;;0.94;100.00;96187.47;4983661;28;1888;-80
2023/03/07 05:49:00;;;;;;;;;;;1.70;99.90;;;1.02;100.00;96171.03;5003312;28;1718;-81
2023/03/07 05:51:27;;;;;;;;;;;1.70;99.90;;;0.91;100.00;96188.38;5004798;28;1466;-80
2023/03/07 05:53:54;;;;;;;;;;;1.70;99.90;;;0.84;100.00;96191.97;4998218;28;1487;-81
2023/03/07 05:56:20;;;;;;;;;;;1.70;99.90;;;0.89;100.00;96176.50;4963716;28;1961;-81
2023/03/07 05:58:47;;;;;;;;;;;1.70;99.90;;;0.85;100.00;96180.88;4973627;28;1877;-81
2023/03/07 06:01:15;;;;;;;;;;;1.70;99.90;;;0.92;100.00;96177.28;4983035;28;1712;-81
2023/03/07 06:03:43;;;;;;;;;;;1.70;99.90;;;0.87;100.00;96178.28;4992354;28;1520;-81
2023/03/07 06:06:11;;;;;;;;;;;1.70;99.90;;;0.83;100.00;96169.88;4981010;28;1572;-81
2023/03/07 06:08:39;;;;;;;;;;;1.70;99.90;;;0.83;100.00;96186.03;4992328;28;1541;-80
2023/03/07 06:11:06;;;;;;;;;;;1.70;99.90;;;0.86;100.00;96171.50;4993845;28;1339;-81
2023/03/07 06:13:33;;;;;;;;;;;1.70;99.90;;;0.86;100.00;96169.78;4992018;28;1487;-81
2023/03/07 06:16:00;;;;;;;;;;;1.70;99.90;;;0.85;100.00;96182.63;4975817;28;1450;-81
2023/03/07 06:18:27;;;;;;;;;;;1.70;99.90;;;0.86;100.00;96184.28;5006452;28;1988;-81
2023/03/07 06:20:59;;;;;;;;;;;1.70;99.90;;;0.86;100.00;96163.84;4989552;28;1271;-81
2023/03/07 06:23:28;;;;;;;;;;;1.70;99.90;;;0.85;100.00;96177.50;4996901;28;1705;-81
2023/03/07 06:25:56;;;;;;;;;;;1.60;99.90;;;0.81;100.00;96184.41;4982072;28;1824;-81
2023/03/07 06:28:23;;;;;;;;;;;1.70;99.90;;;0.87;100.00;96191.03;4995833;28;1470;-80
2023/03/07 06:30:50;;;;;;;;;;;1.70;99.90;;;0.81;100.00;96162.25;4996492;28;1440;-81
2023/03/07 06:33:17;;;;;;;;;;;1.80;99.90;;;0.79;100.00;96176.75;4994047;28;1102;-81
2023/03/07 06:35:45;;;;;;;;;;;1.70;99.90;;;0.88;100.00;96187.63;4994340;28;1635;-81
2023/03/07 06:38:13;;;;;;;;;;;1.80;99.90;;;0.95;100.00;96174.63;4983983;28;1887;-81
2023/03/07 06:40:40;;;;;;;;;;;1.70;99.90;;;0.89;100.00;96172.28;4981244;28;1289;-81
2023/03/07 06:43:08;;;;;;;;;;;1.70;99.90;;;0.84;100.00;96171.53;4980226;28;1461;-81
2023/03/07 06:45:36;;;;;;;;;;;1.80;99.90;;;0.86;100.00;96176.59;4994685;28;1618;-81
2023/03/07 06:48:03;;;;;;;;;;;1.80;99.90;;;0.85;100.00;96169.84;4994495;28;1633;-81
2023/03/07 06:50:30;;;;;;;;;;;1.80;99.90;;;0.88;100.00;96168.03;4997949;28;1347;-81
2023/03/07 06:53:01;;;;;;;;;;;1.80;99.90;;;0.89;100.00;96179.06;4997206;28;1733;-81
2023/03/07 06:55:28;;;;;;;;;;;1.90;99.90;;;1.01;100.00;96171.09;4998403;28;1242;-82
2023/03/07 06:57:56;;;;;;;;;;;1.90;99.90;;;1.05;100.00;96177.81;4980893;28;1914;-80
2023/03/07 07:00:24;;;;;;;;;;;1.90;99.90;;;1.03;100.00;96172.72;5002570;28;1634;-81
2023/03/07 07:02:51;;;;;;;;;;;1.90;99.90;;;1.13;100.00;96165.63;4996437;28;1439;-81
2023/03/07 07:05:18;;;;;;;;;;;2.00;99.90;;;1.14;100.00;96169.88;5000125;28;1581;-81
2023/03/07 07:07:45;;;;;;;;;;;1.90;99.90;;;1.04;100.00;96174.38;5002301;28;1580;-81
2023/03/07 07:10:12;;;;;;;;;;;2.10;99.90;;;1.19;100.00;96165.47;4979913;28;1527;-81
2023/03/07 07:12:40;;;;;;;;;;;2.10;99.90;;;1.12;100.00;96163.97;4996162;28;1400;-81
2023/03/07 07:15:08;;;;;;;;;;;2.00;99.90;;;1.14;100.00;96157.09;4987374;28;1328;-81
2023/03/07 07:17:35;;;;;;;;;;;2.10;99.90;;;1.24;100.00;96157.66;4999025;28;1915;-81
2023/03/07 07:20:06;;;;;;;;;;;2.10;99.90;;;1.25;100.00;96155.09;5002803;28;1315;-80
2023/03/07 07:22:33;;;;;;;;;;;2.20;99.90;;;1.27;100.00;96151.63;4997054;28;1608;-81
2023/03/07 07:25:00;;;;;;;;;;;2.30;99.90;;;1.27;100.00;96144.78;4983172;28;983;-80
2023/03/07 07:27:28;;;;;;;;;;;2.30;99.90;;;1.29;100.00;96158.38;5012113;28;1180;-80
2023/03/07 07:29:57;;;;;;;;;;;2.30;99.90;;;1.36;100.00;96164.16;4997694;28;1229;-81
2023/03/07 07:32:24;;;;;;;;;;;2.40;99.90;;;1.51;100.00;96142.41;5004027;28;1501;-81
2023/03/07 07:34:52;;;;;;;;;;;2.30;99.90;;;1.36;100.00;96153.91;5003076;28;1721;-81
2023/03/07 07:37:19;;;;;;;;;;;2.40;99.90;;;1.40;100.00;96169.13;5001172;28;1983;-81
2023/03/07 07:39:48;;;;;;;;;;;2.40;99.90;;;1.34;100.00;96153.13;4995690;28;1481;-81
2023/03/07 07:42:15;;;;;;;;;;;2.50;99.90;;;1.56;100.00;96138.81;5001933;28;1412;-80
2023/03/07 07:44:45;;;;;;;;;;;2.50;99.90;;;1.52;100.00;96155.13;4996018;28;992;-80
2023/03/07 07:47:12;;;;;;;;;;;2.60;99.90;;;1.52;100.00;96150.03;4996787;28;1041;-81
2023/03/07 07:49:39;;;;;;;;;;;2.70;99.90;;;1.66;100.00;96140.22;4985625;28;1565;-80
2023/03/07 07:52:06;;;;;;;;;;;2.80;99.90;;;1.67;100.00;96146.19;4994927;28;1387;-81
2023/03/07 07:54:34;;;;;;;;;;;2.90;99.90;;;1.72;100.00;96138.38;5000426;28;1460;-80
2023/03/07 07:57:01;;;;;;;;;;;2.90;99.90;;;1.83;100.00;96132.03;5000872;28;1896;-81
2023/03/07 07:59:30;;;;;;;;;;;2.90;99.90;;;1.66;100.00;96112.06;5000380;28;1602;-81
2023/03/07 08:01:59;;;;;;;;;;;2.80;99.90;;;1.71;100.00;96134.97;5016571;28;1563;-81
2023/03/07 08:04:26;;;;;;;;;;;2.90;99.90;;;1.83;100.00;96131.19;4998393;28;1507;-81
2023/03/07 08:06:54;;;;;;;;;;;3.00;99.90;;;1.90;100.00;96108.81;4983363;28;1229;-81
2023/03/07 08:09:21;;;;;;;;;;;3.20;99.90;;;1.83;100.00;96132.03;4998637;28;1527;-81
2023/03/07 08:11:48;;;;;;;;;;;3.20;99.90;;;2.20;100.00;96125.72;4995188;28;1457;-81
2023/03/07 08:14:15;;;;;;;;;;;3.20;99.90;;;1.87;100.00;96127.63;4994723;28;1244;-81
2023/03/07 08:16:42;;;;;;;;;;;3.20;99.90;;;2.29;100.00;96117.75;4999731;28;1594;-81
2023/03/07 08:19:09;;;;;;;;;;;3.30;99.90;;;2.17;100.00;96102.81;4982792;28;1887;-81
2023/03/07 08:21:36;;;;;;;;;;;3.30;99.90;;;2.15;100.00;96107.13;4996889;28;989;-81
2023/03/07 08:24:04;;;;;;;;;;;3.30;99.90;;;2.02;100.00;96114.38;4994339;28;1232;-81
2023/03/07 08:26:31;;;;;;;;;;;3.40;99.90;;;2.09;100.00;96118.41;4993908;28;1757;-81
2023/03/07 08:28:58;;;;;;;;;;;3.40;99.90;;;2.20;100.00;96118.06;4995311;28;1504;-79
2023/03/07 08:31:25;;;;;;;;;;;3.40;99.90;;;2.01;100.00;96091.41;4997118;28;1382;-81
2023/03/07 08:33:53;;;;;;;;;;;3.50;99.90;;;2.15;100.00;96116.53;4998061;28;1473;-81
2023/03/07 08:36:20;;;;;;;;;;;3.50;99.90;;;2.83;100.00;96105.66;4977118;28;1559;-81
2023/03/07 08:38:50;;;;;;;;;;;;;;;3.29;100.00;96101.41;4993512;28;1890;-81
2023/03/07 08:41:18;;;;;;;;;;;4.30;99.90;;;3.34;100.00;96116.63;4991365;28;1566;-81
2023/03/07 08:43:47;;;;;;;;;;;4.70;99.90;;;3.28;100.00;96102.28;4995555;28;1080;-81
2023/03/07 08:46:14;;;;;;;;;;;4.90;99.90;;;3.13;100.00;96077.25;4996559;28;1572;-81
2023/03/07 08:48:41;;;;;;;;;;;4.90;99.90;;;2.86;100.00;96113.22;4994538;28;1749;-79
2023/03/07 08:51:11;;;;;;;;;;;4.60;99.90;;;3.02;100.00;96080.19;4995999;28;1230;-81
2023/03/07 08:53:38;;;;;;;;;;;4.60;99.90;;;3.52;100.00;96097.97;4998602;28;1801;-81
2023/03/07 08:56:10;;;;;;;;;;;4.90;99.90;;;3.79;100.00;96077.28;4998836;28;1508;-81
2023/03/07 08:58:37;;;;;;;;;;;5.40;99.90;;;3.92;100.00;96088.72;4999889;28;1883;-78
2023/03/07 09:01:05;;;;;;;;;;;5.50;99.90;;;4.06;100.00;96136.09;4985045;28;1572;-79
2023/03/07 09:03:33;;;;;;;;;;;5.60;99.90;;;3.88;100.00;96076.09;4998570;28;1328;-79
2023/03/07 09:06:02;;;;;;;;;;;5.90;99.90;;;3.90;100.00;96087.97;4987309;28;1241;-78
2023/03/07 09:08:29;;;;;;;;;;;5.70;99.90;;;3.82;100.00;96081.44;4987479;28;1490;-81
2023/03/07 09:10:59;;;;;;;;;;;5.90;99.90;;;3.55;100.00;96050.84;5002549;28;1553;-81
2023/03/07 09:13:26;;;;;;;;;;;5.90;99.90;;;3.66;100.00;96073.53;4999666;28;1562;-79
2023/03/07 09:15:53;;;;;;;;;;;6.10;99.90;;;4.01;100.00;96074.66;4995741;28;1724;-79
2023/03/07 09:18:21;;;;;;;;;;;6.10;99.90;;;4.08;100.00;96072.69;5000401;28;1902;-80
2023/03/07 09:20:50;;;;;;;;;;;6.20;99.90;;;3.83;100.00;96099.38;4994186;28;1364;-79
2023/03/07 09:23:17;;;;;;;;;;;6.10;99.90;;;4.33;100.00;96039.13;4995644;28;1398;-79
2023/03/07 09:25:44;;;;;;;;;;;;;;;3.91;100.00;96073.38;4995495;28;1323;-79
2023/03/07 09:28:13;;;;;;;;;;;5.90;99.90;;;4.28;100.00;96071.88;4989898;28;1456;-79
2023/03/07 09:30:40;;;;;;;;;;;5.70;99.90;;;4.25;100.00;96065.13;4998507;28;1332;-79
2023/03/07 09:33:07;;;;;;;;;;;5.70;99.90;;;3.51;100.00;96080.06;4999272;28;1529;-81
2023/03/07 09:35:36;;;;;;;;;;;5.70;99.90;;;3.97;100.00;96073.97;4994427;28;1487;-81
2023/03/07 09:38:03;;;;;;;;;;;5.40;99.90;;;3.54;100.00;96103.06;4988263;28;1903;-81
2023/03/07 09:40:34;;;;;;;;;;;5.30;99.90;;;3.51;100.00;96077.50;4983427;28;1540;-81
2023/03/07 09:43:07;;;;;;;;;;;5.10;99.90;;;3.55;100.00;96059.38;4970061;28;1678;-79
2023/03/07 09:45:42;;;;;;;;;;;5.00;99.90;;;3.27;100.00;96067.31;4995926;28;1818;-81
2023/03/07 09:48:28;;;;;;;;;;;4.90;99.90;;;3.38;100.00;96068.63;4993880;28;1616;-81
2023/03/07 09:50:58;;;;;;;;;;;4.90;99.90;;;3.92;100.00;96049.38;4995323;28;1553;-81
2023/03/07 09:53:55;;;;;;;;;;;4.90;99.90;;;3.63;100.00;96065.97;4990724;28;2043;-81
2023/03/07 09:56:31;;;;;;;;;;;5.00;99.90;;;3.77;100.00;96061.09;4991549;28;2045;-81
2023/03/07 09:59:25;;;;;;;;;;;5.10;99.90;;;3.80;100.00;96053.28;4991965;28;1919;-81
2023/03/07 10:02:09;;;;;;;;;;;5.40;99.90;;;3.80;100.00;96047.31;4993546;28;1577;-82
2023/03/07 10:05:03;;;;;;;;;;;5.30;99.90;;;3.62;100.00;96054.84;4993027;28;1427;-81
2023/03/07 10:07:30;;;;;;;;;;;5.20;99.90;;;3.39;100.00;96063.44;4989055;28;1678;-81
2023/03/07 10:10:00;;;;;;;;;;;5.00;99.90;;;3.62;100.00;96066.84;4991656;28;1309;-81
2023/03/07 10:12:56;;;;;;;;;;;5.10;99.90;;;3.72;100.00;96034.81;4996690;28;1397;-81
2023/03/07 10:15:55;;;;;;;;;;;5.00;99.90;;;3.39;100.00;96029.25;4999645;28;1439;-81
2023/03/07 10:18:25;;;;;;;;;;;;;;;3.35;100.00;96067.00;4981669;28;1879;-80
2023/03/07 10:21:23;;;;;;;;;;;5.00;99.90;;;3.75;100.00;96050.06;4999834;28;1761;-81
2023/03/07 10:24:10;;;;;;;;;;;5.00;99.90;;;3.65;100.00;96025.66;4991123;28;1503;-81
2023/03/07 10:26:56;;;;;;;;;;;5.00;99.90;;;3.87;100.00;96052.13;4989500;28;1372;-81
2023/03/07 10:29:27;;;;;;;;;;;5.10;99.90;;;3.69;100.00;96037.47;4997795;28;1689;-81
2023/03/07 10:32:19;;;;;;;;;;;5.10;99.90;;;3.83;100.00;96048.03;4976851;28;1801;-81
2023/03/07 10:35:10;;;;;;;;;;;5.10;99.90;;;3.78;100.00;96016.56;4984981;28;1578;-81
2023/03/07 10:37:49;;;;;;;;;;;5.20;99.90;;;4.24;100.00;96035.19;4992023;28;1973;-81
2023/03/07 10:40:27;;;;;;;;;;;5.40;99.90;;;4.39;100.00;96018.31;4996719;28;1559;-82
2023/03/07 10:42:56;;;;;;;;;;;5.50;99.90;;;3.97;100.00;96025.19;4980802;28;1928;-81
2023/03/07 10:45:26;;;;;;;;;;;5.50;99.90;;;4.26;100.00;96068.53;5006142;28;1459;-81
2023/03/07 10:47:53;;;;;;;;;;;5.60;99.90;;;4.15;100.00;96072.38;4995056;28;1490;-83
2023/03/07 10:50:33;;;;;;;;;;;5.80;99.90;;;4.38;100.00;96032.06;4994299;28;1537;-81
2023/03/07 10:53:04;;;;;;;;;;;5.80;99.90;;;4.45;100.00;96028.34;4980672;28;1468;-81
2023/03/07 10:55:43;;;;;;;;;;;5.90;99.90;;;4.17;100.00;96029.50;4980536;28;1451;-82
2023/03/07 10:58:19;;;;;;;;;;;5.90;99.90;;;4.44;100.00;96023.25;4983290;28;1986;-81
2023/03/07 11:01:00;;;;;;;;;;;5.80;99.90;;;3.89;100.00;96014.41;4988329;28;1245;-81
2023/03/07 11:03:35;;;;;;;;;;;5.70;99.90;;;4.11;100.00;96032.31;4984585;28;1380;-81
2023/03/07 11:06:34;;;;;;;;;;;5.60;99.90;;;4.07;100.00;96027.38;4974420;28;1264;-82
2023/03/07 11:09:15;;;;;;;;;;;5.70;99.90;;;4.41;100.00;96031.94;4979480;28;1586;-81
2023/03/07 11:11:54;;;;;;;;;;;5.90;99.90;;;4.21;100.00;96008.81;4985315;28;1391;-80
2023/03/07 11:14:22;;;;;;;;;;;6.00;99.90;;;4.72;100.00;96023.72;4989254;28;1417;-81
2023/03/07 11:16:59;;;;;;;;;;;6.10;99.90;;;4.93;100.00;95983.34;4991614;28;1665;-81
2023/03/07 11:19:39;;;;;;;;;;;6.30;99.90;;;5.11;100.00;95991.97;4964816;28;1915;-81
2023/03/07 11:22:28;;;;;;;;;;;6.40;99.90;;;4.79;100.00;96017.41;4987527;28;1622;-81
2023/03/07 11:24:59;;;;;;;;;;;6.60;99.90;;;4.68;100.00;96000.81;4967545;28;1392;-79
2023/03/07 11:27:33;;;;;;;;;;;6.60;99.90;;;4.84;100.00;96016.38;4984581;28;1338;-80
2023/03/07 11:30:06;;;;;;;;;;;6.50;99.90;;;4.49;100.00;96006.72;4984147;28;1575;-79
2023/03/07 11:32:36;;;;;;;;;;;6.30;99.90;;;4.37;100.00;95984.16;4986827;28;1458;-80
2023/03/07 11:35:14;;;;;;;;;;;6.20;99.90;;;4.24;100.00;96022.34;4987404;28;1566;-80
2023/03/07 11:38:08;;;;;;;;;;;6.00;99.90;;;4.44;100.00;96020.69;4979660;28;1447;-79
2023/03/07 11:40:54;;;;;;;;;;;6.10;99.90;;;4.81;100.00;95995.03;4993434;28;1644;-79
2023/03/07 11:43:26;;;;;;;;;;;6.10;99.90;;;4.93;100.00;95993.66;4992279;28;1428;-79
2023/03/07 11:45:56;;;;;;;;;;;6.10;99.90;;;4.45;100.00;95988.94;4987549;28;1484;-79
2023/03/07 11:48:29;;;;;;;;;;;6.10;99.90;;;4.48;100.00;95994.78;4991078;28;1113;-80